Time;durP1;ratioP1;P1;durP2;ratioP2;P2;SDS_P1;SDS_P2;PMS_P1;PMS_P2;Temp;Humidity;BMP_temperature;BMP_pressure;BME280_temperature;BME280_humidity;BME280_pressure;Samples;Min_cycle;Max_cycle;Signal;HPM_P1;HPM_P2
2022/11/19 00:02:23;;;;;;;0.10;0.10;;;;;;;5.11;100.00;95597.28;4976687;28;20058;-79
2022/11/19 00:05:09;;;;;;;0.10;0.10;;;;;;;4.96;100.00;95592.47;4976929;28;20132;-77
2022/11/19 00:07:55;;;;;;;0.10;0.10;;;;;;;4.99;100.00;95598.13;4974733;28;20096;-79
2022/11/19 00:10:41;;;;;;;0.20;0.20;;;;;;;5.17;100.00;95591.84;4975788;28;20050;-79
2022/11/19 00:13:27;;;;;;;0.20;0.20;;;;;;;5.36;100.00;95595.13;4977768;28;20042;-79
2022/11/19 00:16:13;;;;;;;0.10;0.10;;;;;;;5.37;100.00;95590.59;4968221;28;20145;-78
2022/11/19 00:18:59;;;;;;;0.10;0.10;;;;;;;4.98;100.00;95593.03;4974847;28;20069;-76
2022/11/19 00:21:45;;;;;;;0.10;0.10;;;;;;;4.89;100.00;95587.28;4981178;28;20042;-75
2022/11/19 00:24:31;;;;;;;0.10;0.10;;;;;;;4.75;100.00;95585.94;4979157;28;20458;-74
2022/11/19 00:27:17;;;;;;;0.10;0.10;;;;;;;4.62;100.00;95592.28;4983141;28;20126;-75
2022/11/19 00:30:04;;;;;;;0.10;0.10;;;;;;;4.58;100.00;95592.97;4981460;28;20053;-77
2022/11/19 00:32:49;;;;;;;0.10;0.10;;;;;;;4.37;100.00;95589.09;4978336;28;20043;-75
2022/11/19 00:35:35;;;;;;;0.10;0.10;;;;;;;4.50;100.00;95586.19;4979657;28;20041;-76
2022/11/19 00:38:21;;;;;;;0.10;0.10;;;;;;;4.53;100.00;95583.09;4977924;28;20089;-75
2022/11/19 00:41:07;;;;;;;0.10;0.10;;;;;;;4.34;100.00;95589.53;4984100;28;20092;-77
2022/11/19 00:43:53;;;;;;;0.17;0.17;;;;;;;4.28;100.00;95585.13;4977718;28;20073;-77
2022/11/19 00:46:39;;;;;;;0.10;0.10;;;;;;;4.30;100.00;95583.88;4979310;28;20786;-77
2022/11/19 00:49:25;;;;;;;0.17;0.17;;;;;;;4.23;100.00;95582.38;4979396;28;20089;-76
2022/11/19 00:52:11;;;;;;;0.10;0.10;;;;;;;4.16;100.00;95587.78;4979529;28;20042;-77
2022/11/19 00:54:57;;;;;;;0.10;0.10;;;;;;;4.07;100.00;95592.63;4969021;28;20030;-76
2022/11/19 00:57:43;;;;;;;0.10;0.10;;;;;;;4.19;100.00;95584.69;4982476;28;20046;-76
2022/11/19 01:00:28;;;;;;;0.10;0.10;;;;;;;3.99;100.00;95587.66;4982019;28;20053;-77
2022/11/19 01:03:14;;;;;;;0.10;0.10;;;;;;;3.84;100.00;95579.34;4982278;28;20046;-78
2022/11/19 01:06:02;;;;;;;0.10;0.10;;;;;;;3.73;100.00;95588.06;4981678;28;20045;-76
2022/11/19 01:08:50;;;;;;;0.10;0.10;;;;;;;3.69;100.00;95592.19;4972707;28;20061;-76
2022/11/19 01:11:37;;;;;;;0.10;0.10;;;;;;;3.63;100.00;95585.97;4981273;28;20284;-77
2022/11/19 01:14:23;;;;;;;0.10;0.10;;;;;;;3.63;100.00;95589.41;4972241;28;20045;-78
2022/11/19 01:17:09;;;;;;;0.10;0.10;;;;;;;3.56;100.00;95590.53;4982816;28;20035;-77
2022/11/19 01:19:57;;;;;;;0.10;0.10;;;;;;;3.46;100.00;95598.22;4977787;28;20137;-76
2022/11/19 01:22:45;;;;;;;0.10;0.10;;;;;;;3.30;100.00;95589.06;4975975;28;20260;-76
2022/11/19 01:25:30;;;;;;;0.10;0.10;;;;;;;3.30;100.00;95595.16;4979930;28;20130;-77
2022/11/19 01:28:16;;;;;;;0.10;0.10;;;;;;;3.18;100.00;95593.50;4980196;28;20640;-76
2022/11/19 01:31:07;;;;;;;0.10;0.10;;;;;;;3.11;100.00;95605.97;4964198;28;20046;-77
2022/11/19 01:33:54;;;;;;;0.10;0.10;;;;;;;3.26;100.00;95601.91;4962778;28;20034;-76
2022/11/19 01:36:40;;;;;;;0.10;0.10;;;;;;;3.16;100.00;95611.41;4978516;28;20292;-77
2022/11/19 01:39:26;;;;;;;0.20;0.20;;;;;;;2.99;100.00;95604.09;4977464;28;20545;-75
2022/11/19 01:45:43;;;;;;;0.10;0.10;;;;;;;2.83;100.00;95607.34;4965154;28;20209;-77
2022/11/19 01:48:33;;;;;;;0.10;0.10;;;;;;;2.73;100.00;95605.22;4979871;28;20480;-77
2022/11/19 01:51:28;;;;;;;0.17;0.17;;;;;;;2.57;100.00;95610.22;4966062;28;20528;-76
2022/11/19 01:54:40;;;;;;;0.10;0.10;;;;;;;2.58;100.00;95604.75;4976301;28;20038;-76
2022/11/19 01:57:25;;;;;;;;;;;;;;;2.68;100.00;95605.06;4979633;28;20037;-76
2022/11/19 02:00:12;;;;;;;0.10;0.10;;;;;;;2.60;100.00;95612.47;4969821;28;19960;-76
2022/11/19 02:02:58;;;;;;;0.10;0.10;;;;;;;2.48;100.00;95613.16;4963822;28;20050;-76
2022/11/19 02:05:45;;;;;;;0.10;0.10;;;;;;;2.49;100.00;95628.00;4976398;28;20196;-77
2022/11/19 02:08:49;;;;;;;0.10;0.10;;;;;;;2.22;100.00;95622.13;4978798;28;20421;-77
2022/11/19 02:12:00;;;;;;;0.10;0.10;;;;;;;2.04;100.00;95616.00;4979416;28;20057;-77
2022/11/19 02:14:58;;;;;;;0.10;0.10;;;;;;;2.09;100.00;95635.44;4977563;28;20084;-75
2022/11/19 02:18:01;;;;;;;0.10;0.10;;;;;;;2.01;100.00;95627.78;4978195;28;20564;-76
2022/11/19 02:21:02;;;;;;;0.10;0.10;;;;;;;1.98;100.00;95637.97;4979512;28;20046;-75
2022/11/19 02:24:07;;;;;;;0.10;0.10;;;;;;;2.01;100.00;95632.25;4977048;28;20184;-77
2022/11/19 02:27:17;;;;;;;0.10;0.10;;;;;;;2.06;100.00;95635.88;4977916;28;20148;-75
2022/11/19 02:30:15;;;;;;;0.10;0.10;;;;;;;1.90;100.00;95637.22;4963541;28;20058;-76
2022/11/19 02:33:12;;;;;;;0.10;0.10;;;;;;;1.80;100.00;95630.81;4976330;28;20039;-75
2022/11/19 02:36:07;;;;;;;0.10;0.10;;;;;;;1.64;100.00;95634.75;4977284;28;20346;-75
2022/11/19 02:39:10;;;;;;;0.10;0.10;;;;;;;1.68;100.00;95628.03;4980317;28;20108;-75
2022/11/19 02:42:22;;;;;;;0.10;0.10;;;;;;;1.62;100.00;95634.16;4979294;28;20573;-73
2022/11/19 02:45:12;;;;;;;;;;;;;;;1.58;100.00;95628.50;4969626;28;20275;-77
2022/11/19 02:48:12;;;;;;;0.10;0.10;;;;;;;1.69;100.00;95629.63;4975875;28;20572;-78
2022/11/19 02:51:01;;;;;;;0.10;0.10;;;;;;;1.64;100.00;95643.47;4977866;28;20481;-76
2022/11/19 02:53:47;;;;;;;0.10;0.10;;;;;;;1.52;100.00;95649.63;4973841;28;20141;-75
2022/11/19 02:56:45;;;;;;;0.10;0.10;;;;;;;1.46;100.00;95650.47;4966150;28;20506;-76
2022/11/19 03:06:12;;;;;;;0.10;0.10;;;;;;;1.52;100.00;95653.06;4977491;28;20031;-76
2022/11/19 03:08:58;;;;;;;0.10;0.10;;;;;;;1.64;100.00;95654.03;4976064;28;20445;-77
2022/11/19 03:11:51;;;;;;;0.10;0.10;;;;;;;1.42;100.00;95660.63;4977843;28;20130;-75
2022/11/19 03:18:08;;;;;;;0.10;0.10;;;;;;;1.33;100.00;95665.34;4977632;28;20037;-76
2022/11/19 03:21:05;;;;;;;;;;;;;;;1.47;100.00;95671.34;4979723;28;20426;-76
2022/11/19 03:23:59;;;;;;;0.10;0.10;;;;;;;1.41;100.00;95661.66;4976223;28;19968;-77
2022/11/19 03:26:52;;;;;;;0.10;0.10;;;;;;;1.44;100.00;95665.69;4975423;28;20068;-76
2022/11/19 03:29:42;;;;;;;0.10;0.10;;;;;;;1.40;100.00;95667.94;4976688;28;20042;-77
2022/11/19 03:32:35;;;;;;;0.10;0.10;;;;;;;1.39;100.00;95674.22;4977639;28;20049;-77
2022/11/19 03:35:47;;;;;;;0.10;0.10;;;;;;;1.39;100.00;95667.13;4979052;28;20042;-78
2022/11/19 03:38:37;;;;;;;0.10;0.10;;;;;;;1.28;100.00;95659.88;4978514;28;20043;-76
2022/11/19 03:41:25;;;;;;;0.10;0.10;;;;;;;1.20;100.00;95654.84;4979556;28;20041;-76
2022/11/19 03:44:23;;;;;;;0.10;0.10;;;;;;;1.13;100.00;95667.25;4978290;28;20421;-76
2022/11/19 03:47:13;;;;;;;0.10;0.10;;;;;;;1.18;100.00;95664.81;4975843;28;20050;-77
2022/11/19 03:50:31;;;;;;;0.10;0.10;;;;;;;1.22;100.00;95673.91;4975932;28;20046;-76
2022/11/19 03:53:17;;;;;;;0.10;0.10;;;;;;;1.05;100.00;95675.38;4978089;28;20038;-76
2022/11/19 03:56:10;;;;;;;0.10;0.10;;;;;;;1.24;100.00;95668.41;4975213;28;20049;-76
2022/11/19 03:58:57;;;;;;;0.10;0.10;;;;;;;1.15;100.00;95669.66;4976061;28;20034;-77
2022/11/19 04:01:48;;;;;;;0.10;0.10;;;;;;;1.37;100.00;95677.06;4975589;28;20132;-76
2022/11/19 04:04:37;;;;;;;0.10;0.10;;;;;;;1.23;100.00;95669.44;4974154;28;20485;-76
2022/11/19 04:07:25;;;;;;;0.10;0.10;;;;;;;1.08;100.00;95675.75;4976218;28;20054;-75
2022/11/19 04:10:11;;;;;;;0.10;0.10;;;;;;;1.05;100.00;95663.00;4979054;28;20585;-75
2022/11/19 04:12:57;;;;;;;0.10;0.10;;;;;;;1.11;100.00;95658.75;4975493;28;20049;-77
2022/11/19 04:15:42;;;;;;;0.13;0.13;;;;;;;1.07;100.00;95681.25;4979580;28;20046;-77
2022/11/19 04:18:28;;;;;;;0.10;0.10;;;;;;;1.21;100.00;95682.81;4975079;28;20042;-77
2022/11/19 04:21:14;;;;;;;0.10;0.10;;;;;;;1.22;100.00;95675.72;4977106;28;20046;-76
2022/11/19 04:24:00;;;;;;;0.10;0.10;;;;;;;1.04;100.00;95690.38;4974780;28;20347;-76
2022/11/19 04:26:46;;;;;;;0.10;0.10;;;;;;;0.87;100.00;95694.50;4963956;28;20241;-75
2022/11/19 04:29:32;;;;;;;0.10;0.10;;;;;;;0.98;100.00;95701.75;4969700;28;20056;-76
2022/11/19 04:32:18;;;;;;;0.10;0.10;;;;;;;0.88;100.00;95693.47;4977852;28;20108;-75
2022/11/19 04:35:04;;;;;;;0.10;0.10;;;;;;;0.90;100.00;95696.69;4974971;28;20132;-74
2022/11/19 04:37:50;;;;;;;0.10;0.10;;;;;;;1.07;100.00;95691.78;4974240;28;20057;-76
2022/11/19 04:40:38;;;;;;;0.10;0.10;;;;;;;0.95;100.00;95698.72;4978141;28;20073;-75
2022/11/19 04:43:24;;;;;;;0.10;0.10;;;;;;;1.09;100.00;95695.03;4977397;28;20340;-78
2022/11/19 04:46:10;;;;;;;0.10;0.10;;;;;;;1.09;100.00;95709.03;4974176;28;20034;-76
2022/11/19 04:48:56;;;;;;;0.10;0.10;;;;;;;0.94;100.00;95702.38;4976382;28;20054;-75
2022/11/19 04:51:42;;;;;;;0.10;0.10;;;;;;;1.03;100.00;95714.31;4975956;28;20641;-76
2022/11/19 04:54:28;;;;;;;0.10;0.10;;;;;;;0.90;100.00;95712.50;4977623;28;20034;-77
2022/11/19 04:57:14;;;;;;;0.10;0.10;;;;;;;0.77;100.00;95715.16;4978121;28;20042;-76
2022/11/19 05:00:00;;;;;;;0.10;0.10;;;;;;;0.62;100.00;95704.03;4975259;28;20483;-76
2022/11/19 05:02:49;;;;;;;0.10;0.10;;;;;;;0.69;100.00;95713.53;4975127;28;20804;-74
2022/11/19 05:05:35;;;;;;;0.10;0.10;;;;;;;0.59;100.00;95709.72;4942798;28;20138;-75
2022/11/19 05:08:21;;;;;;;0.10;0.10;;;;;;;0.84;100.00;95708.06;4941950;28;20567;-74
2022/11/19 05:11:07;;;;;;;0.10;0.10;;;;;;;0.96;100.00;95711.69;4942589;28;20324;-74
2022/11/19 05:13:53;;;;;;;0.10;0.10;;;;;;;0.94;100.00;95710.28;4943598;28;20106;-75
2022/11/19 05:16:39;;;;;;;0.20;0.20;;;;;;;0.88;100.00;95716.38;4942185;28;20114;-77
2022/11/19 05:19:25;;;;;;;0.10;0.10;;;;;;;0.73;100.00;95714.78;4940335;28;20313;-78
2022/11/19 05:22:11;;;;;;;0.10;0.10;;;;;;;0.70;100.00;95719.63;4942175;28;20466;-74
2022/11/19 05:24:57;;;;;;;0.10;0.10;;;;;;;0.66;100.00;95716.59;4942470;28;20194;-76
2022/11/19 05:27:43;;;;;;;0.17;0.17;;;;;;;0.66;100.00;95719.22;4941380;28;20523;-75
2022/11/19 05:30:29;;;;;;;0.10;0.10;;;;;;;0.71;100.00;95716.00;4944652;28;20504;-76
2022/11/19 05:33:14;;;;;;;0.10;0.10;;;;;;;0.56;100.00;95713.56;4941360;28;20094;-76
2022/11/19 05:36:01;;;;;;;0.10;0.10;;;;;;;0.40;100.00;95717.44;4945762;28;20051;-77
2022/11/19 05:38:47;;;;;;;0.10;0.10;;;;;;;0.34;100.00;95730.59;4944245;28;20047;-76
2022/11/19 05:41:33;;;;;;;0.10;0.10;;;;;;;0.30;100.00;95740.69;4942681;28;20057;-76
2022/11/19 05:44:18;;;;;;;0.10;0.10;;;;;;;-0.02;100.00;95727.31;4943494;28;20761;-77
2022/11/19 05:47:04;;;;;;;0.10;0.10;;;;;;;0.04;100.00;95728.31;4931775;28;20046;-75
2022/11/19 05:49:50;;;;;;;0.10;0.10;;;;;;;-0.15;100.00;95737.81;4943874;28;20047;-74
2022/11/19 05:52:36;;;;;;;0.15;0.15;;;;;;;-0.17;100.00;95725.84;4943613;28;20039;-76
2022/11/19 05:55:22;;;;;;;0.10;0.10;;;;;;;-0.15;100.00;95729.94;4944832;28;20182;-77
2022/11/19 05:58:08;;;;;;;0.20;0.20;;;;;;;-0.05;100.00;95738.22;4939723;28;20491;-77
2022/11/19 06:00:55;;;;;;;0.10;0.10;;;;;;;-0.06;100.00;95733.97;4944999;28;20039;-76
2022/11/19 06:03:41;;;;;;;0.10;0.10;;;;;;;0.04;100.00;95730.97;4942086;28;20459;-76
2022/11/19 06:06:27;;;;;;;0.20;0.20;;;;;;;0.03;100.00;95739.88;4942559;28;20572;-77
2022/11/19 06:09:13;;;;;;;0.20;0.20;;;;;;;-0.15;100.00;95742.28;4944002;28;21072;-77
2022/11/19 06:12:01;;;;;;;0.20;0.20;;;;;;;-0.23;100.00;95742.41;4943827;28;20137;-77
2022/11/19 06:14:47;;;;;;;0.10;0.10;;;;;;;-0.12;100.00;95739.22;4942356;28;20206;-78
2022/11/19 06:17:33;;;;;;;0.10;0.10;;;;;;;-0.02;100.00;95747.53;4942294;28;20038;-78
2022/11/19 06:20:18;;;;;;;0.10;0.10;;;;;;;-0.05;100.00;95747.94;4944128;28;20093;-77
2022/11/19 06:23:04;;;;;;;0.10;0.10;;;;;;;-0.06;100.00;95743.69;4945477;28;20074;-78
2022/11/19 06:25:53;;;;;;;0.10;0.10;;;;;;;0.18;100.00;95750.22;4944334;28;20049;-78
2022/11/19 06:28:38;;;;;;;0.10;0.10;;;;;;;0.05;100.00;95750.19;4940251;28;20153;-77
2022/11/19 06:31:24;;;;;;;0.10;0.10;;;;;;;0.19;100.00;95749.19;4941746;28;20054;-77
2022/11/19 06:34:10;;;;;;;0.10;0.10;;;;;;;0.20;100.00;95756.06;4946606;28;20042;-78
2022/11/19 06:36:57;;;;;;;0.10;0.10;;;;;;;0.14;100.00;95752.41;4942482;28;20042;-76
2022/11/19 06:39:43;;;;;;;0.10;0.10;;;;;;;-0.03;100.00;95757.25;4941440;28;20051;-77
2022/11/19 06:42:35;;;;;;;0.10;0.10;;;;;;;0.02;100.00;95771.63;4944726;28;20047;-78
2022/11/19 06:45:21;;;;;;;0.13;0.13;;;;;;;0.05;100.00;95781.75;4941759;28;20320;-76
2022/11/19 06:48:06;;;;;;;0.10;0.10;;;;;;;-0.06;100.00;95785.78;4942340;28;20079;-77
2022/11/19 06:50:52;;;;;;;0.10;0.10;;;;;;;-0.09;100.00;95771.19;4943632;28;20047;-79
2022/11/19 06:53:38;;;;;;;0.10;0.10;;;;;;;0.08;100.00;95779.56;4940109;28;20500;-79
2022/11/19 06:56:24;;;;;;;0.20;0.20;;;;;;;0.02;100.00;95784.78;4944460;28;20046;-78
2022/11/19 06:59:10;;;;;;;0.20;0.20;;;;;;;0.04;100.00;95794.09;4940311;28;20479;-78
2022/11/19 07:01:56;;;;;;;0.20;0.20;;;;;;;-0.14;100.00;95791.22;4941242;28;20547;-77
2022/11/19 07:04:42;;;;;;;0.20;0.20;;;;;;;-0.13;100.00;95795.47;4957279;28;20138;-78
2022/11/19 07:07:27;;;;;;;0.20;0.20;;;;;;;0.02;100.00;95784.78;4979880;28;20101;-78
2022/11/19 07:10:14;;;;;;;0.10;0.10;;;;;;;-0.13;100.00;95784.94;4963955;28;20046;-77
2022/11/19 07:13:00;;;;;;;0.10;0.10;;;;;;;-0.09;100.00;95797.50;4980454;28;20034;-79
2022/11/19 07:15:50;;;;;;;0.10;0.10;;;;;;;-0.25;100.00;95791.78;4968553;28;20144;-77
2022/11/19 07:18:35;;;;;;;0.10;0.10;;;;;;;-0.07;100.00;95798.13;4976216;28;20073;-77
2022/11/19 07:21:21;;;;;;;0.13;0.13;;;;;;;0.00;100.00;95811.31;4979856;28;20042;-79
2022/11/19 07:24:08;;;;;;;0.13;0.13;;;;;;;0.02;100.00;95809.28;4977295;28;20538;-78
2022/11/19 07:26:54;;;;;;;0.17;0.17;;;;;;;-0.04;100.00;95810.06;4978705;28;20220;-77
2022/11/19 07:29:40;;;;;;;0.10;0.10;;;;;;;-0.02;100.00;95808.03;4978150;28;20406;-78
2022/11/19 07:32:26;;;;;;;0.10;0.10;;;;;;;0.28;100.00;95811.97;4630417;28;10000126;-77
2022/11/19 07:35:12;;;;;;;0.10;0.10;;;;;;;0.17;100.00;95815.19;4981538;28;20479;-77
2022/11/19 07:37:58;;;;;;;0.20;0.20;;;;;;;0.04;100.00;95820.41;4980385;28;20039;-76
2022/11/19 07:40:52;;;;;;;0.20;0.20;;;;;;;0.08;100.00;95812.91;4979209;28;20046;-75
2022/11/19 07:43:38;;;;;;;0.10;0.10;;;;;;;0.10;100.00;95819.63;4979060;28;20399;-79
2022/11/19 07:46:24;;;;;;;0.15;0.15;;;;;;;0.13;100.00;95818.41;4978520;28;20073;-77
2022/11/19 07:49:10;;;;;;;0.20;0.20;;;;;;;0.07;100.00;95813.94;4979866;28;20287;-78
2022/11/19 07:51:56;;;;;;;0.10;0.10;;;;;;;0.26;100.00;95834.22;4980679;28;20378;-77
2022/11/19 07:54:42;;;;;;;0.20;0.20;;;;;;;0.14;100.00;95831.34;4979104;28;20569;-77
2022/11/19 07:57:27;;;;;;;0.10;0.10;;;;;;;0.21;100.00;95832.19;4956666;28;20061;-77
2022/11/19 08:00:14;;;;;;;0.10;0.10;;;;;;;0.39;100.00;95836.06;4976439;28;20054;-77
2022/11/19 08:03:01;;;;;;;0.20;0.20;;;;;;;0.49;100.00;95842.56;4965446;28;20046;-77
2022/11/19 08:05:47;;;;;;;0.13;0.13;;;;;;;0.28;100.00;95851.44;4980926;28;20057;-77
2022/11/19 08:08:33;;;;;;;0.10;0.10;;;;;;;0.40;100.00;95846.41;4978846;28;20045;-77
2022/11/19 08:11:19;;;;;;;0.10;0.10;;;;;;;0.32;100.00;95843.16;4981745;28;20049;-78
2022/11/19 08:14:05;;;;;;;0.10;0.10;;;;;;;0.38;100.00;95847.59;4981753;28;20042;-78
2022/11/19 08:19:55;;;;;;;0.10;0.10;;;;;;;0.44;100.00;95844.19;4978251;28;20539;-77
2022/11/19 08:22:41;;;;;;;0.10;0.10;;;;;;;0.50;100.00;95838.94;4967219;28;20418;-77
2022/11/19 08:25:27;;;;;;;0.20;0.20;;;;;;;0.30;100.00;95850.41;4980001;28;20057;-77
2022/11/19 08:28:13;;;;;;;0.20;0.20;;;;;;;0.24;100.00;95852.03;4978613;28;20053;-78
2022/11/19 08:31:07;;;;;;;0.10;0.10;;;;;;;0.39;100.00;95852.69;4979208;28;20443;-77
2022/11/19 08:33:53;;;;;;;0.10;0.10;;;;;;;0.54;100.00;95857.75;4977717;28;20056;-78
2022/11/19 08:36:39;;;;;;;0.20;0.20;;;;;;;0.67;100.00;95855.16;4981946;28;20038;-76
2022/11/19 08:39:25;;;;;;;0.10;0.10;;;;;;;0.43;100.00;95855.72;4978026;28;20045;-76
2022/11/19 08:45:15;;;;;;;0.10;0.10;;;;;;;0.63;100.00;95855.78;4984627;28;20457;-74
2022/11/19 08:48:08;;;;;;;0.10;0.10;;;;;;;0.56;100.00;95871.56;4973227;28;20046;-74
2022/11/19 08:50:54;;;;;;;0.10;0.10;;;;;;;0.63;100.00;95861.03;4983439;28;20237;-72
2022/11/19 08:53:40;;;;;;;0.20;0.20;;;;;;;0.66;100.00;95871.97;4979780;28;20038;-75
2022/11/19 08:56:26;;;;;;;0.20;0.20;;;;;;;0.82;100.00;95855.78;4981882;28;20038;-76
2022/11/19 08:59:12;;;;;;;0.10;0.10;;;;;;;0.88;100.00;95853.34;4980194;28;20656;-72
2022/11/19 09:01:58;;;;;;;0.10;0.10;;;;;;;0.75;100.00;95857.59;4980498;28;20084;-70
2022/11/19 09:04:44;;;;;;;0.10;0.10;;;;;;;0.63;100.00;95861.84;4978598;28;20057;-72
2022/11/19 09:07:29;;;;;;;0.20;0.20;;;;;;;0.73;100.00;95867.53;4979938;28;20113;-75
2022/11/19 09:10:16;;;;;;;0.20;0.20;;;;;;;0.84;100.00;95869.53;4949242;28;20348;-73
2022/11/19 09:13:04;;;;;;;0.10;0.10;;;;;;;1.06;100.00;95872.00;4982563;28;20137;-73
2022/11/19 09:15:50;;;;;;;0.10;0.10;;;;;;;1.15;100.00;95889.22;4982623;28;20330;-71
2022/11/19 09:18:38;;;;;;;0.17;0.17;;;;;;;1.18;100.00;95883.56;4981088;28;20046;-71
2022/11/19 09:21:24;;;;;;;0.20;0.20;;;;;;;1.17;100.00;95889.00;4961761;28;20038;-72
2022/11/19 09:24:10;;;;;;;0.20;0.20;;;;;;;1.23;100.00;95893.47;4969098;28;20486;-75
2022/11/19 09:26:56;;;;;;;0.13;0.13;;;;;;;1.24;100.00;95885.34;4983767;28;20331;-71
2022/11/19 09:29:42;;;;;;;0.10;0.10;;;;;;;1.13;100.00;95882.53;4980476;28;20053;-73
2022/11/19 09:32:28;;;;;;;0.10;0.10;;;;;;;1.03;100.00;95889.03;4975458;28;20073;-73
2022/11/19 09:35:13;;;;;;;0.15;0.15;;;;;;;1.17;100.00;95889.84;4984803;28;20049;-71
2022/11/19 09:37:59;;;;;;;0.10;0.10;;;;;;;1.51;100.00;95893.25;4973932;28;20033;-74
2022/11/19 09:40:51;;;;;;;0.10;0.10;;;;;;;1.67;100.00;95890.19;4985026;28;20572;-72
2022/11/19 09:43:52;;;;;;;0.20;0.20;;;;;;;1.69;100.00;95890.78;4983211;28;20042;-73
2022/11/19 09:46:53;;;;;;;0.10;0.10;;;;;;;0.92;100.00;95907.25;4974212;28;20389;-74
2022/11/19 09:50:04;;;;;;;0.20;0.20;;;;;;;1.08;100.00;95907.66;4979923;28;20037;-74
2022/11/19 09:52:57;;;;;;;0.20;0.20;;;;;;;0.89;100.00;95907.66;4973830;28;20870;-74
2022/11/19 09:55:45;;;;;;;0.10;0.10;;;;;;;1.02;100.00;95907.69;4984104;28;20042;-72
2022/11/19 09:58:42;;;;;;;0.20;0.20;;;;;;;1.28;100.00;95912.94;4983526;28;20548;-72
2022/11/19 10:01:29;;;;;;;0.10;0.10;;;;;;;1.22;100.00;95913.75;4981430;28;20537;-75
2022/11/19 10:04:19;;;;;;;0.10;0.10;;;;;;;1.17;100.00;95924.09;4982132;28;20053;-74
2022/11/19 10:07:20;;;;;;;0.10;0.10;;;;;;;1.26;100.00;95924.72;4982830;28;20482;-74
2022/11/19 10:10:06;;;;;;;0.15;0.15;;;;;;;0.75;100.00;95933.97;4953367;28;20061;-75
2022/11/19 10:13:10;;;;;;;0.10;0.10;;;;;;;0.68;100.00;95932.34;4971693;28;20606;-73
2022/11/19 10:16:33;;;;;;;0.10;0.10;;;;;;;0.72;100.00;95937.00;4980084;28;20034;-73
2022/11/19 10:19:44;;;;;;;0.17;0.17;;;;;;;0.77;100.00;95921.41;4981249;28;20446;-71
2022/11/19 10:22:49;;;;;;;0.10;0.10;;;;;;;0.80;100.00;95928.13;4981725;28;20042;-74
2022/11/19 10:25:41;;;;;;;0.10;0.10;;;;;;;0.92;100.00;95929.13;4983357;28;20153;-73
2022/11/19 10:28:30;;;;;;;0.20;0.20;;;;;;;0.91;100.00;95930.16;4981468;28;20050;-73
2022/11/19 10:31:26;;;;;;;0.13;0.13;;;;;;;0.95;100.00;95939.28;4981159;28;20057;-71
2022/11/19 10:34:28;;;;;;;0.20;0.20;;;;;;;0.80;100.00;95936.03;4972170;28;20042;-73
2022/11/19 10:37:17;;;;;;;0.10;0.10;;;;;;;0.84;100.00;95935.41;4981611;28;20042;-71
2022/11/19 10:40:20;;;;;;;0.10;0.10;;;;;;;0.84;100.00;95924.88;4982555;28;20046;-74
2022/11/19 10:43:15;;;;;;;0.20;0.20;;;;;;;0.57;100.00;95940.81;4985928;28;20030;-71
2022/11/19 10:46:03;;;;;;;0.10;0.10;;;;;;;0.65;100.00;95938.81;4982629;28;20041;-73
2022/11/19 10:48:56;;;;;;;0.10;0.10;;;;;;;1.12;100.00;95934.44;4973630;28;20042;-72
2022/11/19 10:51:42;;;;;;;0.10;0.10;;;;;;;1.19;100.00;95937.88;4983301;28;20129;-75
2022/11/19 10:54:29;;;;;;;0.10;0.10;;;;;;;1.48;100.00;95935.84;4980169;28;20067;-76
2022/11/19 10:57:18;;;;;;;0.20;0.20;;;;;;;1.27;100.00;95935.03;4971646;28;20482;-74
2022/11/19 11:00:04;;;;;;;0.10;0.10;;;;;;;0.90;100.00;95922.44;4983378;28;20160;-71
2022/11/19 11:02:57;;;;;;;0.20;0.20;;;;;;;0.94;100.00;95927.13;4984658;28;20557;-73
2022/11/19 11:05:54;;;;;;;0.10;0.10;;;;;;;1.17;100.00;95926.75;4981443;28;20059;-73
2022/11/19 11:08:51;;;;;;;0.17;0.17;;;;;;;1.41;100.00;95932.41;4981870;28;20268;-76
2022/11/19 11:14:53;;;;;;;0.13;0.13;;;;;;;1.47;100.00;95918.41;4968004;28;20112;-73
2022/11/19 11:17:41;;;;;;;0.10;0.10;;;;;;;1.27;100.00;95921.88;4981029;28;20030;-75
2022/11/19 11:20:30;;;;;;;0.20;0.20;;;;;;;1.49;100.00;95924.31;4981928;28;20239;-73
2022/11/19 11:23:19;;;;;;;0.17;0.17;;;;;;;1.61;100.00;95927.91;4982514;28;20065;-73
2022/11/19 11:26:09;;;;;;;0.10;0.10;;;;;;;1.68;100.00;95912.91;4981023;28;20050;-73
2022/11/19 11:29:13;;;;;;;0.13;0.13;;;;;;;1.49;100.00;95932.22;4976594;28;20065;-76
2022/11/19 11:32:31;;;;;;;0.10;0.10;;;;;;;1.19;100.00;95931.81;4296386;28;10001870;-76
2022/11/19 11:35:32;;;;;;;0.15;0.15;;;;;;;1.81;100.00;95926.06;4980373;28;20038;-74
2022/11/19 11:38:26;;;;;;;0.20;0.20;;;;;;;1.93;100.00;95924.41;4979258;28;20042;-72
2022/11/19 11:41:17;;;;;;;0.10;0.10;;;;;;;2.12;100.00;95921.94;4983337;28;20046;-74
2022/11/19 11:44:15;;;;;;;0.20;0.20;;;;;;;2.12;100.00;95927.22;4981283;28;20130;-73
2022/11/19 11:47:09;;;;;;;0.20;0.20;;;;;;;2.08;100.00;95929.44;4971712;28;20041;-72
2022/11/19 11:50:06;;;;;;;0.10;0.10;;;;;;;1.26;100.00;95937.91;4964202;28;20470;-71
2022/11/19 11:52:54;;;;;;;0.10;0.10;;;;;;;1.60;100.00;95942.13;4979780;28;20091;-73
2022/11/19 11:55:40;;;;;;;0.10;0.10;;;;;;;1.60;100.00;95948.22;4966037;28;20604;-74
2022/11/19 11:58:31;;;;;;;0.10;0.10;;;;;;;1.37;100.00;95955.72;4982842;28;20064;-75
2022/11/19 12:01:17;;;;;;;0.10;0.10;;;;;;;1.52;100.00;95952.88;4980889;28;20632;-74
2022/11/19 12:04:03;;;;;;;0.10;0.10;;;;;;;1.51;100.00;95935.44;4978423;28;20253;-74
2022/11/19 12:07:11;;;;;;;0.10;0.10;;;;;;;1.50;100.00;95924.09;4965142;28;20068;-75
2022/11/19 12:10:18;;;;;;;0.10;0.10;;;;;;;1.11;100.00;95922.28;4952203;28;20049;-73
2022/11/19 12:13:22;;;;;;;0.20;0.20;;;;;;;0.79;100.00;95924.66;4979417;28;20361;-73
2022/11/19 12:16:26;;;;;;;0.20;0.20;;;;;;;0.81;100.00;95924.47;4982243;28;20609;-74
2022/11/19 12:19:27;;;;;;;0.10;0.10;;;;;;;0.73;100.00;95927.28;4985248;28;20251;-77
2022/11/19 12:22:51;;;;;;;0.20;0.20;;;;;;;0.87;100.00;95925.50;4984293;28;20046;-75
2022/11/19 12:26:14;;;;;;;0.10;0.10;;;;;;;1.15;100.00;95928.75;4988080;28;20503;-73
2022/11/19 12:29:23;;;;;;;0.10;0.10;;;;;;;1.48;100.00;95920.00;4981420;28;20065;-73
2022/11/19 12:32:25;;;;;;;0.20;0.20;;;;;;;1.43;100.00;95928.56;4984455;28;20056;-75
2022/11/19 12:35:19;;;;;;;0.13;0.13;;;;;;;1.25;100.00;95925.72;4983812;28;20037;-73
2022/11/19 12:38:33;;;;;;;0.10;0.10;;;;;;;1.29;100.00;95932.19;4983657;28;20038;-75
2022/11/19 12:41:34;;;;;;;0.17;0.17;;;;;;;1.26;100.00;95940.53;4973917;28;20560;-74
2022/11/19 12:44:38;;;;;;;0.10;0.10;;;;;;;1.36;100.00;95939.09;4985119;28;20071;-72
2022/11/19 12:47:35;;;;;;;0.13;0.13;;;;;;;1.39;100.00;95930.78;4983528;28;20042;-74
2022/11/19 12:50:32;;;;;;;0.10;0.10;;;;;;;1.36;100.00;95925.09;4985453;28;20050;-73
2022/11/19 12:53:26;;;;;;;0.10;0.10;;;;;;;1.75;100.00;95918.16;4984465;28;20185;-70
2022/11/19 12:56:38;;;;;;;0.10;0.10;;;;;;;1.93;100.00;95921.75;4981184;28;20068;-72
2022/11/19 12:59:37;;;;;;;0.20;0.20;;;;;;;2.15;100.00;95932.06;4973872;28;20040;-76
2022/11/19 13:03:00;;;;;;;0.10;0.10;;;;;;;2.23;100.00;95931.81;4970173;28;20050;-74
2022/11/19 13:06:03;;;;;;;0.20;0.20;;;;;;;2.31;100.00;95920.22;4968275;28;20039;-75
2022/11/19 13:08:57;;;;;;;0.10;0.10;;;;;;;1.65;100.00;95913.31;4981424;28;20046;-72
2022/11/19 13:11:53;;;;;;;0.10;0.10;;;;;;;1.61;100.00;95922.66;4979897;28;20081;-73
2022/11/19 13:14:43;;;;;;;0.20;0.20;;;;;;;1.41;100.00;95924.50;4979416;28;20050;-75
2022/11/19 13:17:33;;;;;;;0.20;0.20;;;;;;;1.94;100.00;95920.75;4983733;28;20511;-74
2022/11/19 13:20:30;;;;;;;0.20;0.20;;;;;;;1.95;100.00;95922.38;4984958;28;20585;-75
2022/11/19 13:23:25;;;;;;;0.17;0.17;;;;;;;1.81;100.00;95919.97;4981622;28;20035;-75
2022/11/19 13:26:19;;;;;;;0.10;0.10;;;;;;;1.45;100.00;95928.34;4983050;28;20679;-74
2022/11/19 13:29:23;;;;;;;;;;;;;;;1.14;100.00;95924.50;4980758;28;20128;-72
2022/11/19 13:32:30;;;;;;;0.10;0.10;;;;;;;1.04;100.00;95934.63;4982398;28;19972;-77
2022/11/19 13:35:32;;;;;;;0.10;0.10;;;;;;;1.08;100.00;95938.47;4981197;28;20045;-73
2022/11/19 13:38:43;;;;;;;0.10;0.10;;;;;;;1.47;100.00;95929.75;4980425;28;21018;-72
2022/11/19 13:44:37;;;;;;;0.20;0.20;;;;;;;1.33;100.00;95922.88;4982489;28;20042;-75
2022/11/19 13:44:43;;;;;;;0.10;0.10;;;;;;;1.59;100.00;95927.31;4980698;28;20065;-73
2022/11/19 13:48:08;;;;;;;0.10;0.10;;;;;;;1.45;100.00;95942.34;4981704;28;20073;-73
2022/11/19 13:51:00;;;;;;;0.20;0.20;;;;;;;1.27;100.00;95932.41;4984388;28;20540;-73